Time;durP1;ratioP1;P1;durP2;ratioP2;P2;SDS_P1;SDS_P2;PMS_P1;PMS_P2;Temp;Humidity;BMP_temperature;BMP_pressure;BME280_temperature;BME280_humidity;BME280_pressure;Samples;Min_cycle;Max_cycle;Signal;HPM_P1;HPM_P2
2021/10/16 00:01:22;;;;;;;10.57;5.50;;;;;;;;;;5012121;28;20880;-46
2021/10/16 00:03:48;;;;;;;12.55;5.88;;;;;;;;;;5011903;28;20176;-47
2021/10/16 00:06:14;;;;;;;15.40;5.53;;;;;;;;;;5012055;28;20562;-46
2021/10/16 00:08:40;;;;;;;10.80;5.53;;;;;;;;;;5012051;28;20189;-47
2021/10/16 00:11:06;;;;;;;10.13;5.00;;;;;;;;;;5011945;28;20198;-49
2021/10/16 00:13:33;;;;;;;18.67;5.27;;;;;;;;;;5011818;28;20454;-48
2021/10/16 00:15:59;;;;;;;7.25;5.70;;;;;;;;;;5012038;28;20411;-46
2021/10/16 00:18:25;;;;;;;14.03;6.30;;;;;;;;;;5011913;28;20522;-49
2021/10/16 00:20:51;;;;;;;13.70;4.95;;;;;;;;;;5011979;28;20486;-49
2021/10/16 00:23:17;;;;;;;9.30;4.78;;;;;;;;;;5012182;28;20658;-48
2021/10/16 00:25:43;;;;;;;9.52;5.18;;;;;;;;;;5015850;28;20168;-48
2021/10/16 00:28:09;;;;;;;14.20;4.97;;;;;;;;;;5015898;28;20214;-48
2021/10/16 00:30:35;;;;;;;7.47;5.47;;;;;;;;;;5015851;28;20408;-48
2021/10/16 00:33:01;;;;;;;9.13;5.50;;;;;;;;;;5015457;28;20451;-48
2021/10/16 00:35:27;;;;;;;10.25;4.45;;;;;;;;;;5015756;28;20403;-49
2021/10/16 00:37:53;;;;;;;14.07;5.43;;;;;;;;;;5015547;28;20169;-47
2021/10/16 00:40:19;;;;;;;10.13;5.70;;;;;;;;;;5015503;28;20403;-48
2021/10/16 00:42:49;;;;;;;8.82;5.20;;;;;;;;;;5015396;28;20403;-49
2021/10/16 00:45:15;;;;;;;12.77;4.55;;;;;;;;;;5015522;28;20527;-47
2021/10/16 00:47:44;;;;;;;19.10;6.28;;;;;;;;;;5015477;28;20173;-48
2021/10/16 00:50:11;;;;;;;9.27;5.75;;;;;;;;;;5015466;28;20200;-49
2021/10/16 00:52:37;;;;;;;8.85;5.07;;;;;;;;;;5015059;28;20211;-49
2021/10/16 00:55:05;;;;;;;15.52;4.93;;;;;;;;;;5015301;28;20569;-47
2021/10/16 00:57:32;;;;;;;11.43;5.88;;;;;;;;;;5015401;28;20594;-48
2021/10/16 00:59:58;;;;;;;8.18;4.60;;;;;;;;;;5015081;28;20205;-47
2021/10/16 01:02:24;;;;;;;11.77;6.00;;;;;;;;;;5015022;28;20199;-46
2021/10/16 01:04:50;;;;;;;12.20;5.73;;;;;;;;;;5015218;28;20172;-46
2021/10/16 01:07:16;;;;;;;15.18;6.65;;;;;;;;;;5014987;28;20413;-49
2021/10/16 01:09:43;;;;;;;16.73;5.60;;;;;;;;;;5015050;28;20192;-47
2021/10/16 01:12:09;;;;;;;7.45;5.10;;;;;;;;;;5014735;28;20405;-47
2021/10/16 01:14:38;;;;;;;5.97;4.93;;;;;;;;;;5015009;28;20543;-47
2021/10/16 01:17:05;;;;;;;14.13;6.20;;;;;;;;;;5014893;28;20168;-47
2021/10/16 01:19:32;;;;;;;11.20;5.82;;;;;;;;;;5014847;28;20187;-46
2021/10/16 01:21:59;;;;;;;9.43;5.40;;;;;;;;;;5014578;28;20173;-47
2021/10/16 01:24:25;;;;;;;21.40;7.20;;;;;;;;;;5014956;28;20184;-47
2021/10/16 01:26:51;;;;;;;10.17;5.97;;;;;;;;;;5014787;28;20200;-48
2021/10/16 01:29:24;;;;;;;19.10;6.35;;;;;;;;;;5014669;28;20427;-48
2021/10/16 01:31:50;;;;;;;11.20;6.60;;;;;;;;;;5014483;28;20177;-47
2021/10/16 01:34:16;;;;;;;10.82;6.80;;;;;;;;;;5014187;28;20206;-47
2021/10/16 01:36:43;;;;;;;12.83;6.47;;;;;;;;;;5014570;28;20169;-48
2021/10/16 01:39:09;;;;;;;9.30;5.32;;;;;;;;;;5014420;28;20478;-49
2021/10/16 01:41:36;;;;;;;7.20;5.20;;;;;;;;;;5014427;28;20666;-48
2021/10/16 01:44:03;;;;;;;11.15;6.00;;;;;;;;;;5014295;28;20676;-48
2021/10/16 01:46:29;;;;;;;14.35;6.75;;;;;;;;;;5014385;28;20184;-48
2021/10/16 01:48:55;;;;;;;9.73;5.97;;;;;;;;;;5014192;28;20192;-48
2021/10/16 01:51:21;;;;;;;11.73;5.23;;;;;;;;;;5014308;28;20446;-48
2021/10/16 01:53:47;;;;;;;16.50;6.00;;;;;;;;;;5013969;28;20462;-48
2021/10/16 01:56:13;;;;;;;7.20;5.13;;;;;;;;;;5014206;28;20403;-48
2021/10/16 01:58:39;;;;;;;8.93;5.70;;;;;;;;;;5014260;28;20200;-47
2021/10/16 02:01:05;;;;;;;9.10;5.83;;;;;;;;;;5014183;28;20434;-48
2021/10/16 02:03:31;;;;;;;14.93;5.32;;;;;;;;;;5013777;28;20411;-48
2021/10/16 02:05:57;;;;;;;9.83;5.13;;;;;;;;;;5014085;28;20698;-48
2021/10/16 02:08:23;;;;;;;7.00;4.97;;;;;;;;;;5013814;28;20489;-48
2021/10/16 02:10:49;;;;;;;12.13;5.87;;;;;;;;;;5013941;28;20781;-47
2021/10/16 02:13:15;;;;;;;10.97;5.90;;;;;;;;;;5014000;28;20454;-47
2021/10/16 02:15:41;;;;;;;13.77;5.38;;;;;;;;;;5013873;28;20411;-46
2021/10/16 02:18:07;;;;;;;12.77;5.30;;;;;;;;;;5013576;28;20188;-47
2021/10/16 02:20:33;;;;;;;11.40;5.63;;;;;;;;;;5013789;28;20508;-47
2021/10/16 02:22:59;;;;;;;9.45;5.93;;;;;;;;;;5013476;28;20461;-47
2021/10/16 02:25:25;;;;;;;18.77;5.83;;;;;;;;;;5013676;28;20687;-47
2021/10/16 02:27:51;;;;;;;14.52;5.38;;;;;;;;;;5013966;28;20771;-46
2021/10/16 02:30:17;;;;;;;16.37;6.00;;;;;;;;;;5013583;28;20230;-46
2021/10/16 02:32:43;;;;;;;9.70;4.73;;;;;;;;;;5013303;28;20769;-48
2021/10/16 02:35:09;;;;;;;8.57;5.47;;;;;;;;;;5013500;28;20408;-47
2021/10/16 02:37:35;;;;;;;10.37;5.20;;;;;;;;;;5013371;28;20895;-48
2021/10/16 02:40:01;;;;;;;12.65;6.43;;;;;;;;;;5013346;28;20428;-47
2021/10/16 02:42:28;;;;;;;23.13;5.55;;;;;;;;;;5013118;28;20171;-48
2021/10/16 02:44:55;;;;;;;7.30;4.90;;;;;;;;;;5013322;28;20168;-47
2021/10/16 02:47:20;;;;;;;8.13;5.10;;;;;;;;;;5012436;28;20212;-47
2021/10/16 02:49:46;;;;;;;10.17;5.50;;;;;;;;;;5013212;28;20230;-47
2021/10/16 02:52:12;;;;;;;15.17;6.90;;;;;;;;;;5012868;28;20761;-47
2021/10/16 02:54:38;;;;;;;8.57;6.17;;;;;;;;;;5013163;28;20769;-46
2021/10/16 02:57:04;;;;;;;11.57;5.80;;;;;;;;;;5013062;28;20392;-47
2021/10/16 02:59:30;;;;;;;12.00;6.63;;;;;;;;;;5012891;28;20435;-47
2021/10/16 03:01:56;;;;;;;17.33;6.53;;;;;;;;;;5012725;28;20415;-47
2021/10/16 03:04:22;;;;;;;14.30;6.63;;;;;;;;;;5013013;28;20399;-48
2021/10/16 03:06:48;;;;;;;8.27;5.83;;;;;;;;;;5012799;28;20490;-47
2021/10/16 03:09:17;;;;;;;14.57;6.43;;;;;;;;;;5012804;28;20481;-47
2021/10/16 03:11:43;;;;;;;11.35;6.93;;;;;;;;;;5012794;28;20930;-47
2021/10/16 03:14:09;;;;;;;11.73;7.10;;;;;;;;;;5012596;28;20196;-47
2021/10/16 03:16:35;;;;;;;12.50;6.70;;;;;;;;;;5012653;28;20169;-49
2021/10/16 03:19:01;;;;;;;12.95;6.15;;;;;;;;;;5012694;28;20430;-46
2021/10/16 03:21:27;;;;;;;12.37;7.40;;;;;;;;;;5012605;28;20168;-47
2021/10/16 03:23:53;;;;;;;9.73;6.60;;;;;;;;;;5012613;28;20403;-47
2021/10/16 03:26:19;;;;;;;12.80;6.70;;;;;;;;;;5012552;28;20460;-46
2021/10/16 03:28:45;;;;;;;18.33;7.17;;;;;;;;;;5012516;28;20434;-48
2021/10/16 03:31:11;;;;;;;11.90;5.60;;;;;;;;;;5012986;28;20407;-48
2021/10/16 03:33:37;;;;;;;16.73;6.75;;;;;;;;;;5012213;28;20454;-48
2021/10/16 03:36:04;;;;;;;10.50;5.77;;;;;;;;;;5012466;28;20165;-48
2021/10/16 03:38:30;;;;;;;9.07;6.32;;;;;;;;;;5012295;28;20423;-48
2021/10/16 03:40:56;;;;;;;9.90;6.87;;;;;;;;;;5012433;28;20168;-46
2021/10/16 03:43:22;;;;;;;12.33;6.40;;;;;;;;;;5012092;28;20923;-47
2021/10/16 03:45:47;;;;;;;10.75;6.43;;;;;;;;;;5012265;28;20478;-47
2021/10/16 03:48:13;;;;;;;12.13;6.60;;;;;;;;;;5012215;28;20747;-47
2021/10/16 03:50:39;;;;;;;8.77;5.60;;;;;;;;;;5013100;28;20399;-45
2021/10/16 03:53:05;;;;;;;13.87;5.83;;;;;;;;;;5011980;28;20455;-46
2021/10/16 03:55:31;;;;;;;7.10;5.80;;;;;;;;;;5012295;28;20481;-45
2021/10/16 03:57:57;;;;;;;8.10;5.77;;;;;;;;;;5012058;28;20450;-46
2021/10/16 04:00:23;;;;;;;11.40;5.63;;;;;;;;;;5012040;28;20776;-45
2021/10/16 04:02:52;;;;;;;14.32;6.10;;;;;;;;;;5011930;28;20456;-45
2021/10/16 04:05:18;;;;;;;10.27;6.07;;;;;;;;;;5012274;28;20168;-46
2021/10/16 04:07:44;;;;;;;10.03;6.30;;;;;;;;;;5012075;28;20722;-46
2021/10/16 04:10:10;;;;;;;12.32;7.45;;;;;;;;;;5012081;28;20958;-46
2021/10/16 04:12:36;;;;;;;10.82;6.30;;;;;;;;;;5011622;28;20279;-45
2021/10/16 04:15:03;;;;;;;9.57;6.15;;;;;;;;;;5012041;28;20203;-46
2021/10/16 04:17:29;;;;;;;15.57;6.32;;;;;;;;;;5012191;28;20164;-45
2021/10/16 04:19:55;;;;;;;14.00;5.85;;;;;;;;;;5011900;28;20253;-46
2021/10/16 04:22:21;;;;;;;13.80;6.03;;;;;;;;;;5011826;28;20176;-45
2021/10/16 04:24:47;;;;;;;13.30;6.13;;;;;;;;;;5012005;28;20442;-45
2021/10/16 04:27:13;;;;;;;8.73;5.40;;;;;;;;;;5011862;28;20408;-46
2021/10/16 04:29:39;;;;;;;9.20;7.53;;;;;;;;;;5011848;28;20427;-44
2021/10/16 04:32:05;;;;;;;9.07;5.83;;;;;;;;;;5011803;28;20768;-45
2021/10/16 04:34:31;;;;;;;16.13;5.77;;;;;;;;;;5011727;28;20473;-46
2021/10/16 04:36:57;;;;;;;12.03;6.10;;;;;;;;;;5011745;28;20403;-45
2021/10/16 04:39:25;;;;;;;12.43;6.30;;;;;;;;;;5011757;28;20419;-45
2021/10/16 04:41:54;;;;;;;10.63;6.15;;;;;;;;;;5011512;28;20411;-45
2021/10/16 04:44:20;;;;;;;12.73;6.47;;;;;;;;;;5011745;28;20659;-45
2021/10/16 04:46:46;;;;;;;14.00;6.53;;;;;;;;;;5011655;28;20612;-46
2021/10/16 04:49:12;;;;;;;19.25;7.28;;;;;;;;;;5011627;28;20192;-45
2021/10/16 04:51:39;;;;;;;10.68;6.18;;;;;;;;;;5011547;28;20200;-47
2021/10/16 04:54:05;;;;;;;8.07;5.95;;;;;;;;;;5011495;28;20208;-45
2021/10/16 04:56:31;;;;;;;12.10;6.57;;;;;;;;;;5011513;28;20171;-46
2021/10/16 04:58:57;;;;;;;22.20;7.05;;;;;;;;;;5011431;28;20192;-45
2021/10/16 05:01:23;;;;;;;10.17;6.53;;;;;;;;;;5011656;28;20169;-46
2021/10/16 05:03:48;;;;;;;12.70;5.93;;;;;;;;;;5011380;28;20468;-45
2021/10/16 05:06:14;;;;;;;11.50;6.80;;;;;;;;;;5011557;28;20419;-45
2021/10/16 05:08:41;;;;;;;8.20;5.90;;;;;;;;;;5011391;28;20510;-45
2021/10/16 05:11:07;;;;;;;23.55;7.05;;;;;;;;;;5014677;28;20417;-45
2021/10/16 05:13:33;;;;;;;10.95;6.95;;;;;;;;;;5015006;28;20303;-45
2021/10/16 05:15:59;;;;;;;13.98;6.53;;;;;;;;;;5015199;28;20172;-45
2021/10/16 05:18:26;;;;;;;10.70;6.90;;;;;;;;;;5014817;28;20246;-45
2021/10/16 05:20:52;;;;;;;16.88;6.45;;;;;;;;;;5014921;28;20403;-46
2021/10/16 05:23:19;;;;;;;11.95;7.00;;;;;;;;;;5014565;28;20275;-45
2021/10/16 05:25:45;;;;;;;9.80;6.15;;;;;;;;;;5014791;28;20218;-45
2021/10/16 05:28:11;;;;;;;16.92;7.07;;;;;;;;;;5014721;28;20191;-45
2021/10/16 05:30:38;;;;;;;14.63;7.03;;;;;;;;;;5014917;28;20168;-45
2021/10/16 05:33:04;;;;;;;10.90;6.45;;;;;;;;;;5014478;28;20672;-45
2021/10/16 05:35:30;;;;;;;10.67;6.63;;;;;;;;;;5014653;28;20168;-44
2021/10/16 05:37:56;;;;;;;17.03;7.30;;;;;;;;;;5014413;28;20399;-45
2021/10/16 05:40:21;;;;;;;13.13;6.93;;;;;;;;;;5014782;28;20400;-45
2021/10/16 05:42:49;;;;;;;14.07;6.83;;;;;;;;;;5014308;28;20465;-46
2021/10/16 05:45:15;;;;;;;16.67;7.47;;;;;;;;;;5014502;28;20399;-45
2021/10/16 05:47:41;;;;;;;16.13;7.23;;;;;;;;;;5014391;28;20175;-45
2021/10/16 05:50:08;;;;;;;12.50;6.07;;;;;;;;;;5014311;28;20420;-45
2021/10/16 05:52:35;;;;;;;14.63;7.05;;;;;;;;;;5014011;28;20196;-46
2021/10/16 05:55:01;;;;;;;14.48;6.80;;;;;;;;;;5014751;28;20576;-45
2021/10/16 05:57:27;;;;;;;18.17;6.80;;;;;;;;;;5014329;28;20174;-46
2021/10/16 05:59:53;;;;;;;11.10;5.93;;;;;;;;;;5014034;28;20490;-45
2021/10/16 06:02:18;;;;;;;10.60;5.73;;;;;;;;;;5013956;28;20408;-46
2021/10/16 06:04:44;;;;;;;16.23;6.53;;;;;;;;;;5014003;28;20450;-46
2021/10/16 06:07:10;;;;;;;14.73;6.17;;;;;;;;;;5014013;28;20692;-45
2021/10/16 06:09:36;;;;;;;13.73;5.97;;;;;;;;;;5014160;28;20419;-45
2021/10/16 06:12:02;;;;;;;10.77;5.27;;;;;;;;;;5013759;28;20403;-45
2021/10/16 06:14:29;;;;;;;9.57;6.90;;;;;;;;;;5014092;28;20454;-45
2021/10/16 06:16:55;;;;;;;11.88;6.22;;;;;;;;;;5013885;28;20439;-45
2021/10/16 06:19:21;;;;;;;9.13;6.30;;;;;;;;;;5013678;28;20290;-45
2021/10/16 06:21:47;;;;;;;15.70;7.30;;;;;;;;;;5012381;28;20411;-46
2021/10/16 06:24:13;;;;;;;13.75;7.03;;;;;;;;;;5013765;28;20462;-45
2021/10/16 06:26:39;;;;;;;14.93;7.30;;;;;;;;;;5013663;28;20183;-45
2021/10/16 06:29:05;;;;;;;11.73;6.07;;;;;;;;;;5013684;28;20200;-45
2021/10/16 06:31:32;;;;;;;9.13;6.20;;;;;;;;;;5013580;28;20411;-45
2021/10/16 06:33:59;;;;;;;13.15;6.13;;;;;;;;;;5012917;28;20455;-47
2021/10/16 06:36:28;;;;;;;24.55;6.65;;;;;;;;;;5012742;28;20679;-45
2021/10/16 06:38:54;;;;;;;13.23;6.80;;;;;;;;;;5012568;28;20564;-46
2021/10/16 06:41:20;;;;;;;10.30;5.93;;;;;;;;;;5013575;28;20407;-46
2021/10/16 06:43:46;;;;;;;8.98;6.20;;;;;;;;;;5013094;28;20782;-46
2021/10/16 06:46:12;;;;;;;11.30;5.90;;;;;;;;;;5013464;28;20632;-45
2021/10/16 06:48:38;;;;;;;12.10;6.53;;;;;;;;;;5013140;28;20428;-46
2021/10/16 06:51:04;;;;;;;10.37;5.63;;;;;;;;;;5013219;28;20774;-47
2021/10/16 06:53:30;;;;;;;8.37;4.97;;;;;;;;;;5012989;28;20455;-45
2021/10/16 06:55:56;;;;;;;12.07;5.87;;;;;;;;;;5028356;28;20403;-47
2021/10/16 06:58:22;;;;;;;20.63;6.13;;;;;;;;;;5013341;28;20419;-45
2021/10/16 07:00:48;;;;;;;14.13;6.57;;;;;;;;;;5011864;28;20581;-45
2021/10/16 07:03:14;;;;;;;10.00;5.43;;;;;;;;;;5012813;28;20486;-45
2021/10/16 07:05:41;;;;;;;12.35;6.28;;;;;;;;;;5012857;28;20411;-45
2021/10/16 07:08:07;;;;;;;13.37;5.83;;;;;;;;;;5013065;28;20560;-46
2021/10/16 07:10:33;;;;;;;9.07;5.40;;;;;;;;;;5012991;28;20401;-46
2021/10/16 07:13:03;;;;;;;13.30;5.87;;;;;;;;;;5012575;28;20479;-46
2021/10/16 07:15:29;;;;;;;14.73;5.80;;;;;;;;;;5012916;28;20480;-46
2021/10/16 07:17:55;;;;;;;11.60;5.60;;;;;;;;;;5012810;28;20757;-47
2021/10/16 07:20:21;;;;;;;6.23;4.90;;;;;;;;;;5027858;28;20434;-46
2021/10/16 07:22:47;;;;;;;12.50;5.33;;;;;;;;;;5012648;28;20769;-45
2021/10/16 07:25:13;;;;;;;10.90;5.20;;;;;;;;;;5012852;28;20482;-46
2021/10/16 07:27:39;;;;;;;13.93;6.03;;;;;;;;;;5012569;28;20396;-45
2021/10/16 07:30:06;;;;;;;11.83;5.73;;;;;;;;;;5012516;28;20515;-45
2021/10/16 07:32:32;;;;;;;8.27;4.87;;;;;;;;;;5011838;28;20413;-47
2021/10/16 07:34:58;;;;;;;7.93;5.40;;;;;;;;;;5012512;28;20407;-45
2021/10/16 07:37:24;;;;;;;10.13;4.23;;;;;;;;;;5012671;28;20408;-45
2021/10/16 07:39:50;;;;;;;8.30;4.60;;;;;;;;;;5012400;28;20843;-45
2021/10/16 07:42:16;;;;;;;7.53;4.77;;;;;;;;;;5012208;28;20409;-45
2021/10/16 07:44:42;;;;;;;11.53;4.97;;;;;;;;;;5012357;28;20420;-45
2021/10/16 07:47:08;;;;;;;8.53;4.97;;;;;;;;;;5012158;28;20777;-46
2021/10/16 07:49:34;;;;;;;11.03;5.30;;;;;;;;;;5012184;28;20429;-45
2021/10/16 07:52:00;;;;;;;7.27;4.70;;;;;;;;;;5012310;28;20441;-46
2021/10/16 07:54:26;;;;;;;11.27;5.20;;;;;;;;;;5012176;28;20471;-45
2021/10/16 07:56:52;;;;;;;11.17;4.80;;;;;;;;;;5012183;28;20470;-46
2021/10/16 07:59:18;;;;;;;14.40;6.10;;;;;;;;;;5027151;28;20900;-46
2021/10/16 08:01:44;;;;;;;12.97;5.37;;;;;;;;;;5011924;28;20729;-49
2021/10/16 08:04:10;;;;;;;7.47;4.43;;;;;;;;;;5012087;28;20473;-47
2021/10/16 08:06:36;;;;;;;12.87;5.53;;;;;;;;;;5012084;28;20403;-47
2021/10/16 08:09:03;;;;;;;9.77;4.73;;;;;;;;;;5027231;28;20431;-46
2021/10/16 08:11:29;;;;;;;18.50;5.63;;;;;;;;;;5012277;28;20453;-46
2021/10/16 08:13:55;;;;;;;7.73;4.70;;;;;;;;;;5012346;28;20851;-47
2021/10/16 08:16:21;;;;;;;14.63;6.47;;;;;;;;;;5011842;28;20411;-46
2021/10/16 08:18:47;;;;;;;14.07;4.83;;;;;;;;;;5011958;28;20430;-46
2021/10/16 08:21:13;;;;;;;7.50;5.00;;;;;;;;;;5012013;28;20538;-48
2021/10/16 08:23:39;;;;;;;6.93;5.10;;;;;;;;;;5011797;28;20418;-45
2021/10/16 08:26:05;;;;;;;7.90;4.97;;;;;;;;;;5012013;28;20425;-45
2021/10/16 08:28:31;;;;;;;8.13;4.80;;;;;;;;;;5011792;28;20428;-46
2021/10/16 08:31:00;;;;;;;13.10;6.17;;;;;;;;;;5011820;28;20407;-45
2021/10/16 08:33:26;;;;;;;15.33;5.70;;;;;;;;;;5011753;28;20771;-45
2021/10/16 08:35:52;;;;;;;14.50;5.93;;;;;;;;;;5011901;28;20406;-45
2021/10/16 08:38:18;;;;;;;9.10;5.23;;;;;;;;;;5011816;28;20719;-45
2021/10/16 08:40:44;;;;;;;10.90;5.53;;;;;;;;;;5011903;28;21149;-45
2021/10/16 08:43:11;;;;;;;16.73;5.97;;;;;;;;;;5011707;28;20407;-46
2021/10/16 08:45:37;;;;;;;14.73;6.43;;;;;;;;;;5014305;28;20411;-48
2021/10/16 08:48:07;;;;;;;14.73;4.97;;;;;;;;;;5015407;28;20403;-46
2021/10/16 08:50:34;;;;;;;10.80;6.00;;;;;;;;;;5015565;28;20491;-47
2021/10/16 08:53:00;;;;;;;11.83;6.30;;;;;;;;;;5015370;28;20462;-46
2021/10/16 08:55:26;;;;;;;11.47;6.67;;;;;;;;;;5015456;28;20456;-46
2021/10/16 08:57:52;;;;;;;9.60;4.83;;;;;;;;;;5015300;28;20437;-46
2021/10/16 09:00:38;;;;;;;7.57;5.37;;;;;;;;;;5015325;28;20498;-47
2021/10/16 09:03:22;;;;;;;8.23;5.20;;;;;;;;;;5015136;28;20404;-47
2021/10/16 09:06:01;;;;;;;20.00;6.50;;;;;;;;;;5015279;28;20405;-46
2021/10/16 09:08:38;;;;;;;12.67;8.87;;;;;;;;;;5015045;28;20428;-46
2021/10/16 09:11:19;;;;;;;11.53;4.70;;;;;;;;;;5015394;28;20457;-46
2021/10/16 09:13:50;;;;;;;12.63;5.23;;;;;;;;;;5014782;28;20976;-46
2021/10/16 09:16:24;;;;;;;10.83;5.23;;;;;;;;;;5015037;28;20411;-47
2021/10/16 09:18:51;;;;;;;11.83;4.57;;;;;;;;;;5014870;28;20419;-46
2021/10/16 09:21:17;;;;;;;11.20;4.80;;;;;;;;;;5014980;28;20437;-47
2021/10/16 09:23:43;;;;;;;13.50;5.33;;;;;;;;;;5014727;28;20506;-48
2021/10/16 09:26:09;;;;;;;7.30;4.57;;;;;;;;;;5014892;28;20937;-46
2021/10/16 09:28:38;;;;;;;10.97;5.10;;;;;;;;;;5014713;28;20508;-47
2021/10/16 09:31:10;;;;;;;14.67;5.77;;;;;;;;;;5014580;28;20411;-46
2021/10/16 09:33:46;;;;;;;7.50;4.57;;;;;;;;;;5014422;28;20461;-47
2021/10/16 09:36:24;;;;;;;10.00;4.70;;;;;;;;;;5014729;28;20430;-48
2021/10/16 09:38:51;;;;;;;11.27;4.50;;;;;;;;;;5014600;28;20520;-48
2021/10/16 09:41:23;;;;;;;10.13;4.37;;;;;;;;;;5014663;28;20824;-46
2021/10/16 09:43:50;;;;;;;17.07;5.17;;;;;;;;;;5014118;28;20767;-46
2021/10/16 09:46:17;;;;;;;6.60;4.33;;;;;;;;;;4994353;28;20431;-46
2021/10/16 09:48:45;;;;;;;13.57;4.73;;;;;;;;;;4994830;28;20779;-46
2021/10/16 09:51:14;;;;;;;16.40;4.77;;;;;;;;;;4995540;28;20405;-46
2021/10/16 09:53:40;;;;;;;12.20;4.97;;;;;;;;;;4994558;28;20459;-46
2021/10/16 09:56:06;;;;;;;12.77;4.70;;;;;;;;;;4994581;28;20408;-46
2021/10/16 09:58:33;;;;;;;8.87;4.80;;;;;;;;;;4994234;28;20432;-45
2021/10/16 10:00:59;;;;;;;11.87;4.40;;;;;;;;;;4994707;28;20400;-46
2021/10/16 10:03:28;;;;;;;9.23;3.67;;;;;;;;;;4994609;28;20417;-46
2021/10/16 10:05:55;;;;;;;5.30;4.40;;;;;;;;;;4994485;28;20907;-48
2021/10/16 10:08:21;;;;;;;7.60;3.73;;;;;;;;;;4994425;28;20412;-46
2021/10/16 10:10:48;;;;;;;10.53;3.73;;;;;;;;;;4994444;28;20477;-46
2021/10/16 10:13:14;;;;;;;4.63;2.30;;;;;;;;;;4994046;28;20459;-46
2021/10/16 10:15:40;;;;;;;11.23;3.20;;;;;;;;;;4994606;28;20379;-46
2021/10/16 10:20:53;;;;;;;12.00;3.53;;;;;;;;;;4994551;28;20401;-46
2021/10/16 10:23:21;;;;;;;10.97;3.50;;;;;;;;;;4994105;28;20410;-48
2021/10/16 10:25:46;;;;;;;10.00;2.97;;;;;;;;;;4994184;28;20378;-46
2021/10/16 10:28:12;;;;;;;7.53;2.20;;;;;;;;;;4994016;28;20478;-46
2021/10/16 10:30:47;;;;;;;3.80;1.90;;;;;;;;;;4994170;28;20494;-46
2021/10/16 10:33:16;;;;;;;15.37;3.30;;;;;;;;;;4993913;28;20490;-46
2021/10/16 10:36:06;;;;;;;11.10;4.60;;;;;;;;;;4994045;28;20404;-46
2021/10/16 10:38:32;;;;;;;5.33;2.00;;;;;;;;;;4993382;28;20475;-46
2021/10/16 10:40:59;;;;;;;9.13;2.60;;;;;;;;;;4993930;28;20408;-48
2021/10/16 10:43:39;;;;;;;12.13;2.67;;;;;;;;;;4993665;28;20926;-47
2021/10/16 10:46:16;;;;;;;11.60;3.50;;;;;;;;;;4993832;28;20893;-46
2021/10/16 10:48:43;;;;;;;6.27;3.00;;;;;;;;;;4993876;28;20402;-45
2021/10/16 10:51:09;;;;;;;12.33;2.80;;;;;;;;;;4993706;28;20749;-46
2021/10/16 10:53:37;;;;;;;8.73;2.80;;;;;;;;;;4993457;28;20427;-49
2021/10/16 10:56:03;;;;;;;9.27;3.10;;;;;;;;;;4993706;28;20427;-49
2021/10/16 10:58:48;;;;;;;8.07;3.10;;;;;;;;;;4993405;28;20947;-48
2021/10/16 11:01:33;;;;;;;7.80;1.90;;;;;;;;;;4993674;28;20410;-46
2021/10/16 11:04:02;;;;;;;8.40;1.90;;;;;;;;;;4993350;28;20386;-47
2021/10/16 11:06:28;;;;;;;7.23;2.30;;;;;;;;;;4993250;28;20406;-50
2021/10/16 11:08:54;;;;;;;4.70;1.90;;;;;;;;;;4992915;28;20426;-48
2021/10/16 11:11:20;;;;;;;6.10;2.00;;;;;;;;;;4993356;28;20725;-46
2021/10/16 11:13:46;;;;;;;8.43;2.83;;;;;;;;;;4993073;28;20489;-46
2021/10/16 11:16:13;;;;;;;9.03;2.83;;;;;;;;;;4993339;28;20453;-46
2021/10/16 11:18:39;;;;;;;8.90;1.80;;;;;;;;;;4993096;28;20424;-47
2021/10/16 11:21:10;;;;;;;4.90;2.43;;;;;;;;;;4993216;28;20419;-47
2021/10/16 11:23:38;;;;;;;5.00;2.53;;;;;;;;;;4992967;28;20404;-46
2021/10/16 11:26:11;;;;;;;8.50;2.80;;;;;;;;;;4992945;28;20412;-47
2021/10/16 11:28:38;;;;;;;4.70;2.80;;;;;;;;;;4992911;28;20969;-49
2021/10/16 11:31:05;;;;;;;9.17;2.90;;;;;;;;;;4993169;28;20553;-47
2021/10/16 11:33:33;;;;;;;8.00;2.43;;;;;;;;;;4992687;28;20452;-50
2021/10/16 11:36:00;;;;;;;8.27;2.40;;;;;;;;;;4992886;28;20781;-47
2021/10/16 11:38:36;;;;;;;6.17;2.07;;;;;;;;;;4992640;28;20452;-50
2021/10/16 11:41:03;;;;;;;2.97;2.40;;;;;;;;;;4992756;28;20466;-48
2021/10/16 11:43:34;;;;;;;5.53;2.83;;;;;;;;;;4992497;28;20408;-47
2021/10/16 11:46:00;;;;;;;6.50;2.37;;;;;;;;;;4992708;28;20408;-48
2021/10/16 11:48:26;;;;;;;5.33;2.20;;;;;;;;;;4992601;28;20791;-47
2021/10/16 11:50:55;;;;;;;4.93;2.40;;;;;;;;;;4992634;28;20415;-47
2021/10/16 11:53:25;;;;;;;8.23;2.93;;;;;;;;;;4992288;28;20465;-46
2021/10/16 11:55:55;;;;;;;6.63;2.50;;;;;;;;;;4992627;28;20411;-47
2021/10/16 11:58:22;;;;;;;3.80;2.30;;;;;;;;;;4992519;28;20431;-47
2021/10/16 12:00:50;;;;;;;7.30;2.70;;;;;;;;;;4992598;28;20513;-46
2021/10/16 12:03:24;;;;;;;5.20;2.73;;;;;;;;;;4992421;28;20469;-47
2021/10/16 12:05:55;;;;;;;5.13;2.40;;;;;;;;;;4992709;28;20431;-46
2021/10/16 12:08:29;;;;;;;4.33;2.63;;;;;;;;;;4992436;28;20422;-46
2021/10/16 12:11:02;;;;;;;6.43;3.03;;;;;;;;;;4992535;28;20898;-47
2021/10/16 12:13:39;;;;;;;3.10;2.07;;;;;;;;;;4992304;28;20955;-47
2021/10/16 12:16:13;;;;;;;9.03;2.47;;;;;;;;;;4992842;28;20411;-46
2021/10/16 12:18:53;;;;;;;8.13;2.33;;;;;;;;;;4992433;28;20817;-46
2021/10/16 12:21:29;;;;;;;9.37;2.60;;;;;;;;;;4996446;28;20400;-47
2021/10/16 12:23:56;;;;;;;8.90;2.87;;;;;;;;;;4996296;28;20752;-49
2021/10/16 12:26:23;;;;;;;6.07;3.20;;;;;;;;;;4996145;28;20417;-46
2021/10/16 12:28:50;;;;;;;5.40;2.50;;;;;;;;;;4996322;28;20431;-47
2021/10/16 12:31:16;;;;;;;6.00;3.03;;;;;;;;;;4996354;28;20412;-46
2021/10/16 12:34:01;;;;;;;5.43;2.33;;;;;;;;;;4996051;28;20443;-46
2021/10/16 12:36:32;;;;;;;7.03;2.47;;;;;;;;;;4996199;28;20750;-46
2021/10/16 12:38:59;;;;;;;6.13;2.37;;;;;;;;;;4996051;28;20473;-47
2021/10/16 12:41:26;;;;;;;4.77;2.50;;;;;;;;;;4996193;28;20383;-48
2021/10/16 12:43:53;;;;;;;4.80;2.10;;;;;;;;;;4995961;28;20399;-46
2021/10/16 12:46:28;;;;;;;7.73;3.07;;;;;;;;;;4996059;28;20891;-46
2021/10/16 12:48:55;;;;;;;6.20;2.30;;;;;;;;;;4995989;28;20446;-47
2021/10/16 12:51:40;;;;;;;13.33;3.03;;;;;;;;;;4995896;28;20404;-46
2021/10/16 12:54:06;;;;;;;7.20;3.10;;;;;;;;;;4995699;28;20463;-46
2021/10/16 12:56:32;;;;;;;7.20;2.80;;;;;;;;;;4995792;28;20884;-46
2021/10/16 12:58:59;;;;;;;7.77;2.73;;;;;;;;;;4995706;28;20812;-46
2021/10/16 13:01:28;;;;;;;3.87;2.10;;;;;;;;;;4995781;28;20401;-47
2021/10/16 13:03:54;;;;;;;5.20;2.87;;;;;;;;;;4995482;28;20416;-46
2021/10/16 13:06:20;;;;;;;4.90;2.67;;;;;;;;;;4995669;28;20435;-46
2021/10/16 13:08:46;;;;;;;6.43;3.20;;;;;;;;;;4995548;28;20486;-46
2021/10/16 13:11:14;;;;;;;5.23;2.63;;;;;;;;;;4995710;28;20407;-48
2021/10/16 13:13:41;;;;;;;4.63;2.80;;;;;;;;;;4995449;28;20459;-46
2021/10/16 13:16:07;;;;;;;5.97;2.80;;;;;;;;;;4995536;28;20408;-46
2021/10/16 13:18:33;;;;;;;7.60;2.97;;;;;;;;;;4995493;28;20412;-47
2021/10/16 13:20:59;;;;;;;5.17;2.33;;;;;;;;;;4995499;28;20489;-47
2021/10/16 13:23:25;;;;;;;7.60;2.40;;;;;;;;;;4995160;28;20417;-46
2021/10/16 13:25:50;;;;;;;10.43;3.13;;;;;;;;;;4995387;28;20413;-48
2021/10/16 13:28:16;;;;;;;9.53;3.60;;;;;;;;;;4995201;28;20441;-47
2021/10/16 13:30:42;;;;;;;7.83;2.60;;;;;;;;;;4995208;28;20450;-46
2021/10/16 13:33:08;;;;;;;7.20;2.40;;;;;;;;;;4995201;28;20428;-46
2021/10/16 13:35:34;;;;;;;8.97;2.83;;;;;;;;;;4995197;28;20373;-46
2021/10/16 13:38:00;;;;;;;7.23;2.50;;;;;;;;;;4994999;28;20427;-46
2021/10/16 13:40:26;;;;;;;6.10;2.53;;;;;;;;;;4995130;28;20516;-47
2021/10/16 13:42:52;;;;;;;5.40;3.23;;;;;;;;;;4995393;28;20883;-47
2021/10/16 13:45:19;;;;;;;10.10;2.77;;;;;;;;;;4994970;28;20414;-47
2021/10/16 13:47:46;;;;;;;7.60;2.70;;;;;;;;;;4994699;28;20473;-47
2021/10/16 13:50:12;;;;;;;10.30;3.33;;;;;;;;;;4994878;28;20421;-47
2021/10/16 13:52:39;;;;;;;6.77;2.20;;;;;;;;;;5004726;28;20449;-48
2021/10/16 13:55:05;;;;;;;8.43;2.90;;;;;;;;;;5014398;28;20384;-47
2021/10/16 13:57:31;;;;;;;4.53;2.97;;;;;;;;;;5014197;28;20374;-47
2021/10/16 13:59:57;;;;;;;6.37;3.30;;;;;;;;;;5014024;28;20417;-49
2021/10/16 14:02:23;;;;;;;7.57;3.20;;;;;;;;;;5013911;28;20388;-48
2021/10/16 14:04:49;;;;;;;5.40;2.57;;;;;;;;;;5014211;28;20734;-45
2021/10/16 14:07:15;;;;;;;8.23;2.97;;;;;;;;;;5014046;28;20487;-45
2021/10/16 14:09:41;;;;;;;6.63;2.43;;;;;;;;;;5014494;28;20452;-46
2021/10/16 14:12:07;;;;;;;9.57;2.70;;;;;;;;;;5013801;28;20414;-46
2021/10/16 14:14:33;;;;;;;11.67;3.17;;;;;;;;;;5013860;28;20513;-46
2021/10/16 14:16:59;;;;;;;11.57;3.20;;;;;;;;;;5013906;28;20949;-45
2021/10/16 14:19:25;;;;;;;4.87;2.77;;;;;;;;;;5013738;28;20448;-45
2021/10/16 14:21:51;;;;;;;6.73;3.23;;;;;;;;;;5013565;28;20788;-46
2021/10/16 14:24:17;;;;;;;6.50;2.80;;;;;;;;;;5013650;28;20414;-46
2021/10/16 14:26:43;;;;;;;6.27;2.63;;;;;;;;;;5013761;28;20856;-47
2021/10/16 14:29:09;;;;;;;6.97;2.97;;;;;;;;;;5013542;28;20430;-46
2021/10/16 14:31:35;;;;;;;4.87;3.30;;;;;;;;;;5013624;28;20774;-46
2021/10/16 14:34:01;;;;;;;8.60;3.20;;;;;;;;;;5012174;28;20457;-46
2021/10/16 14:36:28;;;;;;;8.27;3.23;;;;;;;;;;5013459;28;20930;-46
2021/10/16 14:38:54;;;;;;;9.17;3.27;;;;;;;;;;5013537;28;20950;-47